createdAt,value
2018-09-15T00:00:42.460Z,17.66
2018-09-15T00:01:42.396Z,17.63
2018-09-15T00:02:42.333Z,17.59
2018-09-15T00:03:42.276Z,17.65
2018-09-15T00:04:42.213Z,17.57
2018-09-15T00:05:42.157Z,17.46
2018-09-15T00:06:42.096Z,17.49
2018-09-15T00:07:42.036Z,17.46
2018-09-15T00:08:41.976Z,17.47
2018-09-15T00:09:41.916Z,17.45
2018-09-15T00:10:41.856Z,17.49
2018-09-15T00:11:41.813Z,17.43
2018-09-15T00:12:41.735Z,17.39
2018-09-15T00:13:41.676Z,17.39
2018-09-15T00:14:41.619Z,17.34
2018-09-15T00:15:41.556Z,17.41
2018-09-15T00:16:41.498Z,17.43
2018-09-15T00:17:41.438Z,17.47
2018-09-15T00:18:41.376Z,17.34
2018-09-15T00:19:41.316Z,17.34
2018-09-15T00:20:41.257Z,17.37
2018-09-15T00:21:41.197Z,17.35
2018-09-15T00:22:41.135Z,17.32
2018-09-15T00:23:41.079Z,17.28
2018-09-15T00:24:41.017Z,17.27
2018-09-15T00:25:40.955Z,17.28
2018-09-15T00:26:40.895Z,17.28
2018-09-15T00:27:40.837Z,17.20
2018-09-15T00:28:40.775Z,17.27
2018-09-15T00:29:40.715Z,17.25
2018-09-15T00:30:40.655Z,17.16
2018-09-15T00:31:40.594Z,17.19
2018-09-15T00:32:40.538Z,17.22
2018-09-15T00:33:40.474Z,17.22
2018-09-15T00:34:40.412Z,17.07
2018-09-15T00:35:40.355Z,17.12
2018-09-15T00:36:40.298Z,17.16
2018-09-15T00:37:40.237Z,17.19
2018-09-15T00:38:40.175Z,17.20
2018-09-15T00:39:40.115Z,17.17
2018-09-15T00:40:40.054Z,17.06
2018-09-15T00:41:39.999Z,17.12
2018-09-15T00:42:39.931Z,17.17
2018-09-15T00:43:39.871Z,17.09
2018-09-15T00:44:39.811Z,17.14
2018-09-15T00:45:39.751Z,17.04
2018-09-15T00:46:39.689Z,17.09
2018-09-15T00:47:39.631Z,17.09
2018-09-15T00:48:39.571Z,17.13
2018-09-15T00:49:39.510Z,17.10
2018-09-15T00:50:39.448Z,17.14
2018-09-15T00:51:39.392Z,17.16
2018-09-15T00:52:39.329Z,17.14
2018-09-15T00:53:39.268Z,17.14
2018-09-15T00:54:39.207Z,17.07
2018-09-15T00:55:39.147Z,17.13
2018-09-15T00:56:39.089Z,17.12
2018-09-15T00:57:39.029Z,17.13
2018-09-15T00:58:38.965Z,17.14
2018-09-15T00:59:38.906Z,17.16
2018-09-15T01:00:38.843Z,17.17
2018-09-15T01:01:38.787Z,17.13
2018-09-15T01:02:38.730Z,17.13
2018-09-15T01:03:38.664Z,17.13
2018-09-15T01:04:38.605Z,17.09
2018-09-15T01:05:38.547Z,17.07
2018-09-15T01:06:38.489Z,17.07
2018-09-15T01:07:38.424Z,17.02
2018-09-15T01:08:38.367Z,16.99
2018-09-15T01:09:38.304Z,17.09
2018-09-15T01:10:38.242Z,17.10
2018-09-15T01:11:38.184Z,17.13
2018-09-15T01:12:38.123Z,17.09
2018-09-15T01:13:38.063Z,17.13
2018-09-15T01:14:38.003Z,17.12
2018-09-15T01:15:37.942Z,17.13
2018-09-15T01:16:37.882Z,17.16
2018-09-15T01:17:37.822Z,17.13
2018-09-15T01:18:37.760Z,17.07
2018-09-15T01:19:37.701Z,17.07
2018-09-15T01:20:37.641Z,17.04
2018-09-15T01:21:37.581Z,17.09
2018-09-15T01:22:37.523Z,17.14
2018-09-15T01:23:37.461Z,17.13
2018-09-15T01:24:37.400Z,17.13
2018-09-15T01:25:37.341Z,17.16
2018-09-15T01:26:37.281Z,17.12
2018-09-15T01:27:37.222Z,17.01
2018-09-15T01:28:37.162Z,16.97
2018-09-15T01:29:37.100Z,16.95
2018-09-15T01:30:37.039Z,16.95
2018-09-15T01:31:36.979Z,16.87
2018-09-15T01:32:36.918Z,16.88
2018-09-15T01:33:36.861Z,16.88
2018-09-15T01:34:36.798Z,16.76
2018-09-15T01:35:36.738Z,16.72
2018-09-15T01:36:36.679Z,16.73
2018-09-15T01:37:36.620Z,16.72
2018-09-15T01:38:36.557Z,16.72
2018-09-15T01:39:36.498Z,16.67
2018-09-15T01:40:36.437Z,16.69
2018-09-15T01:41:36.376Z,16.59
2018-09-15T01:42:36.315Z,16.69
2018-09-15T01:43:36.255Z,16.62
2018-09-15T01:44:36.195Z,16.57
2018-09-15T01:45:36.137Z,16.51
2018-09-15T01:46:36.074Z,16.57
2018-09-15T01:47:36.014Z,16.58
2018-09-15T01:48:35.955Z,16.49
2018-09-15T01:49:35.895Z,16.40
2018-09-15T01:50:35.830Z,16.55
2018-09-15T01:51:35.772Z,16.44
2018-09-15T01:52:35.714Z,16.39
2018-09-15T01:53:35.653Z,16.44
2018-09-15T01:54:35.595Z,16.44
2018-09-15T01:55:35.533Z,16.54
2018-09-15T01:56:35.471Z,16.52
2018-09-15T01:57:35.435Z,16.47
2018-09-15T01:58:35.348Z,16.43
2018-09-15T01:59:35.295Z,16.46
2018-09-15T02:00:35.230Z,16.40
2018-09-15T02:01:35.170Z,16.47
2018-09-15T02:02:35.106Z,16.46
2018-09-15T02:03:35.049Z,16.49
2018-09-15T02:04:34.987Z,16.46
2018-09-15T02:05:34.931Z,16.49
2018-09-15T02:06:34.869Z,16.44
2018-09-15T02:07:34.806Z,16.44
2018-09-15T02:08:34.745Z,16.39
2018-09-15T02:09:34.684Z,16.42
2018-09-15T02:10:34.623Z,16.40
2018-09-15T02:11:34.563Z,16.37
2018-09-15T02:12:34.502Z,16.39
2018-09-15T02:13:34.443Z,16.39
2018-09-15T02:14:34.382Z,16.36
2018-09-15T02:15:34.322Z,16.39
2018-09-15T02:16:34.259Z,16.46
2018-09-15T02:17:34.199Z,16.37
2018-09-15T02:18:34.137Z,16.43
2018-09-15T02:19:34.078Z,16.52
2018-09-15T02:20:34.021Z,16.46
2018-09-15T02:21:33.956Z,16.44
2018-09-15T02:22:33.927Z,16.46
2018-09-15T02:23:33.837Z,16.39
2018-09-15T02:24:33.775Z,16.43
2018-09-15T02:25:33.714Z,16.39
2018-09-15T02:26:33.658Z,16.28
2018-09-15T02:27:33.593Z,16.33
2018-09-15T02:28:33.532Z,16.21
2018-09-15T02:29:33.473Z,16.18
2018-09-15T02:30:33.412Z,16.18
2018-09-15T02:31:33.351Z,16.18
2018-09-15T02:32:33.291Z,16.21
2018-09-15T02:33:33.231Z,16.16
2018-09-15T02:34:33.170Z,16.06
2018-09-15T02:35:33.110Z,16.10
2018-09-15T02:36:33.054Z,16.09
2018-09-15T02:37:32.988Z,16.06
2018-09-15T02:38:32.926Z,16.09
2018-09-15T02:39:32.865Z,16.09
2018-09-15T02:40:32.804Z,16.10
2018-09-15T02:41:32.746Z,16.18
2018-09-15T02:42:32.683Z,16.09
2018-09-15T02:43:32.624Z,16.09
2018-09-15T02:44:32.562Z,16.13
2018-09-15T02:45:32.500Z,16.08
2018-09-15T02:46:32.440Z,15.98
2018-09-15T02:47:32.381Z,15.98
2018-09-15T02:48:32.323Z,16.00
2018-09-15T02:49:32.259Z,16.00
2018-09-15T02:50:32.197Z,15.88
2018-09-15T02:51:32.139Z,15.90
2018-09-15T02:52:32.078Z,15.85
2018-09-15T02:53:32.020Z,15.87
2018-09-15T02:54:31.966Z,15.84
2018-09-15T02:55:31.895Z,15.87
2018-09-15T02:56:31.833Z,15.87
2018-09-15T02:57:31.774Z,15.85
2018-09-15T02:58:31.715Z,15.88
2018-09-15T02:59:31.650Z,15.85
2018-09-15T03:00:31.591Z,15.81
2018-09-15T03:01:31.533Z,15.77
2018-09-15T03:02:31.472Z,15.80
2018-09-15T03:03:31.408Z,15.81
2018-09-15T03:04:31.348Z,15.78
2018-09-15T03:05:31.288Z,15.85
2018-09-15T03:06:31.227Z,15.87
2018-09-15T03:07:31.162Z,15.87
2018-09-15T03:08:31.105Z,15.83
2018-09-15T03:09:31.055Z,15.99
2018-09-15T03:10:30.984Z,15.90
2018-09-15T03:11:30.923Z,15.95
2018-09-15T03:12:30.861Z,16.00
2018-09-15T03:13:30.801Z,15.93
2018-09-15T03:14:30.739Z,15.99
2018-09-15T03:15:30.680Z,15.98
2018-09-15T03:16:30.622Z,15.99
2018-09-15T03:17:30.560Z,16.02
2018-09-15T03:18:30.497Z,16.13
2018-09-15T03:19:30.436Z,16.13
2018-09-15T03:20:30.374Z,16.18
2018-09-15T03:21:30.316Z,16.21
2018-09-15T03:22:30.255Z,16.24
2018-09-15T03:23:30.192Z,16.21
2018-09-15T03:24:30.131Z,16.32
2018-09-15T03:25:30.070Z,16.25
2018-09-15T03:26:30.009Z,16.25
2018-09-15T03:27:29.950Z,16.28
2018-09-15T03:28:29.887Z,16.26
2018-09-15T03:29:29.828Z,16.22
2018-09-15T03:30:29.767Z,16.33
2018-09-15T03:31:29.707Z,16.26
2018-09-15T03:32:29.646Z,16.32
2018-09-15T03:33:29.586Z,16.25
2018-09-15T03:34:29.523Z,16.28
2018-09-15T03:35:29.464Z,16.18
2018-09-15T03:36:29.402Z,16.29
2018-09-15T03:37:29.342Z,16.21
2018-09-15T03:38:29.276Z,16.16
2018-09-15T03:39:29.218Z,16.16
2018-09-15T03:40:29.158Z,16.10
2018-09-15T03:41:29.174Z,16.05
2018-09-15T03:42:29.035Z,15.98
2018-09-15T03:43:28.976Z,16.05
2018-09-15T03:44:28.915Z,16.00
2018-09-15T03:45:28.855Z,16.10
2018-09-15T03:46:28.792Z,15.91
2018-09-15T03:47:28.731Z,15.93
2018-09-15T03:48:28.675Z,16.00
2018-09-15T03:49:28.611Z,15.84
2018-09-15T03:50:28.547Z,15.81
2018-09-15T03:51:28.489Z,15.85
2018-09-15T03:52:28.428Z,15.84
2018-09-15T03:53:28.372Z,15.80
2018-09-15T03:54:28.304Z,15.72
2018-09-15T03:55:28.244Z,15.76
2018-09-15T03:56:28.185Z,15.63
2018-09-15T03:57:28.124Z,15.60
2018-09-15T03:58:28.063Z,15.62
2018-09-15T03:59:28.002Z,15.66
2018-09-15T04:00:27.952Z,15.70
2018-09-15T04:01:27.881Z,15.70
2018-09-15T04:02:27.820Z,15.68
2018-09-15T04:03:27.763Z,15.77
2018-09-15T04:04:27.700Z,15.77
2018-09-15T04:05:27.640Z,15.84
2018-09-15T04:06:27.576Z,15.84
2018-09-15T04:07:27.516Z,15.80
2018-09-15T04:08:27.458Z,15.76
2018-09-15T04:09:27.398Z,15.80
2018-09-15T04:10:27.335Z,15.80
2018-09-15T04:11:27.270Z,15.77
2018-09-15T04:12:27.213Z,15.87
2018-09-15T04:13:27.151Z,15.85
2018-09-15T04:14:27.094Z,15.88
2018-09-15T04:15:27.028Z,15.91
2018-09-15T04:16:26.969Z,15.85
2018-09-15T04:17:26.907Z,15.96
2018-09-15T04:18:26.845Z,15.91
2018-09-15T04:19:26.784Z,15.88
2018-09-15T04:20:26.724Z,15.88
2018-09-15T04:21:26.663Z,15.98
2018-09-15T04:22:26.602Z,15.99
2018-09-15T04:23:26.541Z,16.00
2018-09-15T04:24:26.480Z,15.96
2018-09-15T04:25:26.421Z,15.93
2018-09-15T04:26:26.360Z,15.80
2018-09-15T04:27:26.299Z,15.85
2018-09-15T04:28:26.297Z,15.91
2018-09-15T04:29:26.177Z,15.90
2018-09-15T04:30:26.114Z,15.91
2018-09-15T04:31:26.055Z,15.99
2018-09-15T04:32:25.994Z,16.03
2018-09-15T04:33:25.934Z,15.90
2018-09-15T04:34:25.873Z,15.81
2018-09-15T04:35:25.812Z,15.98
2018-09-15T04:36:25.750Z,15.96
2018-09-15T04:37:25.690Z,16.08
2018-09-15T04:38:25.630Z,15.96
2018-09-15T04:39:25.565Z,16.05
2018-09-15T04:40:25.507Z,16.16
2018-09-15T04:41:25.447Z,16.10
2018-09-15T04:42:25.385Z,16.18
2018-09-15T04:43:25.324Z,16.16
2018-09-15T04:44:25.263Z,16.21
2018-09-15T04:45:25.202Z,16.26
2018-09-15T04:46:25.142Z,16.29
2018-09-15T04:47:25.081Z,16.29
2018-09-15T04:48:25.022Z,16.28
2018-09-15T04:49:24.969Z,16.40
2018-09-15T04:50:24.898Z,16.42
2018-09-15T04:51:24.839Z,16.39
2018-09-15T04:52:24.778Z,16.42
2018-09-15T04:53:24.716Z,16.43
2018-09-15T04:54:24.655Z,16.51
2018-09-15T04:55:24.597Z,16.40
2018-09-15T04:56:24.534Z,16.43
2018-09-15T04:57:24.476Z,16.44
2018-09-15T04:58:24.413Z,16.49
2018-09-15T04:59:24.351Z,16.51
2018-09-15T05:00:24.291Z,16.47
2018-09-15T05:01:24.231Z,16.55
2018-09-15T05:02:24.170Z,16.49
2018-09-15T05:03:24.109Z,16.47
2018-09-15T05:04:24.050Z,16.44
2018-09-15T05:05:23.991Z,16.44
2018-09-15T05:06:23.932Z,16.57
2018-09-15T05:07:23.869Z,16.51
2018-09-15T05:08:23.807Z,16.44
2018-09-15T05:09:23.745Z,16.49
2018-09-15T05:10:23.684Z,16.54
2018-09-15T05:11:23.622Z,16.49
2018-09-15T05:12:23.577Z,16.51
2018-09-15T05:13:23.502Z,16.51
2018-09-15T05:14:23.440Z,16.51
2018-09-15T05:15:23.381Z,16.43
2018-09-15T05:16:23.320Z,16.55
2018-09-15T05:17:23.260Z,16.47
2018-09-15T05:18:23.199Z,16.54
2018-09-15T05:19:23.141Z,16.40
2018-09-15T05:20:23.079Z,16.40
2018-09-15T05:21:23.018Z,16.43
2018-09-15T05:22:22.957Z,16.49
2018-09-15T05:23:22.897Z,16.40
2018-09-15T05:24:22.834Z,16.52
2018-09-15T05:25:22.777Z,16.54
2018-09-15T05:26:22.714Z,16.47
2018-09-15T05:27:22.653Z,16.54
2018-09-15T05:28:22.596Z,16.64
2018-09-15T05:29:22.535Z,16.59
2018-09-15T05:30:22.474Z,16.64
2018-09-15T05:31:22.424Z,16.57
2018-09-15T05:32:22.350Z,16.62
2018-09-15T05:33:22.295Z,16.62
2018-09-15T05:34:22.236Z,16.64
2018-09-15T05:35:22.170Z,16.57
2018-09-15T05:36:22.110Z,16.58
2018-09-15T05:37:22.049Z,16.64
2018-09-15T05:38:21.988Z,16.65
2018-09-15T05:39:21.927Z,16.55
2018-09-15T05:40:21.866Z,16.69
2018-09-15T05:41:21.805Z,16.65
2018-09-15T05:42:21.747Z,16.61
2018-09-15T05:43:21.684Z,16.61
2018-09-15T05:44:21.623Z,16.64
2018-09-15T05:45:21.563Z,16.62
2018-09-15T05:46:21.501Z,16.65
2018-09-15T05:47:21.442Z,16.64
2018-09-15T05:48:21.382Z,16.64
2018-09-15T05:49:21.321Z,16.62
2018-09-15T05:50:21.265Z,16.69
2018-09-15T05:51:21.202Z,16.59
2018-09-15T05:52:21.141Z,16.62
2018-09-15T05:53:21.081Z,16.64
2018-09-15T05:54:21.017Z,16.65
2018-09-15T05:55:20.962Z,16.73
2018-09-15T05:56:20.897Z,16.67
2018-09-15T05:57:20.843Z,16.64
2018-09-15T05:58:20.776Z,16.67
2018-09-15T05:59:20.717Z,16.69
2018-09-15T06:00:20.712Z,16.73
2018-09-15T06:01:20.598Z,16.70
2018-09-15T06:02:20.534Z,16.72
2018-09-15T06:03:20.475Z,16.74
2018-09-15T06:04:20.449Z,16.76
2018-09-15T06:05:20.352Z,16.73
2018-09-15T06:06:20.294Z,16.73
2018-09-15T06:07:20.232Z,16.80
2018-09-15T06:08:20.171Z,16.80
2018-09-15T06:09:20.111Z,16.83
2018-09-15T06:10:20.051Z,16.80
2018-09-15T06:11:19.988Z,16.90
2018-09-15T06:12:19.930Z,16.92
2018-09-15T06:13:19.869Z,16.90
2018-09-15T06:14:19.807Z,16.91
2018-09-15T06:15:19.749Z,16.95
2018-09-15T06:16:19.687Z,17.01
2018-09-15T06:17:19.627Z,16.92
2018-09-15T06:18:19.566Z,16.98
2018-09-15T06:19:19.505Z,16.99
2018-09-15T06:20:19.446Z,17.01
2018-09-15T06:21:19.386Z,17.02
2018-09-15T06:22:19.325Z,17.01
2018-09-15T06:23:19.264Z,17.01
2018-09-15T06:24:19.204Z,17.13
2018-09-15T06:25:19.144Z,17.13
2018-09-15T06:26:19.081Z,17.06
2018-09-15T06:27:19.028Z,17.07
2018-09-15T06:28:18.964Z,17.14
2018-09-15T06:29:18.903Z,17.14
2018-09-15T06:30:18.842Z,17.09
2018-09-15T06:31:18.780Z,17.20
2018-09-15T06:32:18.724Z,17.16
2018-09-15T06:33:18.661Z,17.17
2018-09-15T06:34:18.605Z,17.19
2018-09-15T06:35:18.542Z,17.14
2018-09-15T06:36:18.508Z,17.20
2018-09-15T06:37:18.424Z,17.19
2018-09-15T06:38:18.367Z,17.22
2018-09-15T06:39:18.309Z,17.24
2018-09-15T06:40:18.249Z,17.27
2018-09-15T06:41:18.180Z,17.24
2018-09-15T06:42:18.119Z,17.30
2018-09-15T06:43:18.058Z,17.39
2018-09-15T06:44:17.999Z,17.34
2018-09-15T06:45:17.989Z,17.43
2018-09-15T06:46:17.879Z,17.38
2018-09-15T06:47:17.816Z,17.32
2018-09-15T06:48:17.756Z,17.32
2018-09-15T06:49:17.696Z,17.30
2018-09-15T06:50:17.637Z,17.32
2018-09-15T06:51:17.612Z,17.34
2018-09-15T06:52:17.517Z,17.39
2018-09-15T06:53:17.456Z,17.43
2018-09-15T06:54:17.397Z,17.41
2018-09-15T06:55:17.363Z,17.38
2018-09-15T06:56:17.278Z,17.38
2018-09-15T06:57:17.216Z,17.37
2018-09-15T06:58:17.154Z,17.32
2018-09-15T06:59:17.094Z,17.43
2018-09-15T07:00:17.035Z,17.41
2018-09-15T07:01:16.977Z,17.43
2018-09-15T07:02:16.916Z,17.35
2018-09-15T07:03:16.855Z,17.43
2018-09-15T07:04:16.793Z,17.38
2018-09-15T07:05:16.735Z,17.41
2018-09-15T07:06:16.676Z,17.39
2018-09-15T07:07:16.613Z,17.45
2018-09-15T07:08:16.553Z,17.37
2018-09-15T07:09:16.495Z,17.43
2018-09-15T07:10:16.433Z,17.35
2018-09-15T07:11:16.373Z,17.41
2018-09-15T07:12:16.315Z,17.47
2018-09-15T07:13:16.254Z,17.35
2018-09-15T07:14:16.194Z,17.45
2018-09-15T07:15:16.131Z,17.38
2018-09-15T07:16:16.072Z,17.43
2018-09-15T07:17:16.013Z,17.45
2018-09-15T07:18:15.947Z,17.43
2018-09-15T07:19:15.892Z,17.46
2018-09-15T07:20:15.925Z,17.38
2018-09-15T07:21:15.772Z,17.49
2018-09-15T07:22:15.714Z,17.49
2018-09-15T07:23:15.651Z,17.57
2018-09-15T07:24:15.592Z,17.54
2018-09-15T07:25:15.533Z,17.52
2018-09-15T07:26:15.472Z,17.54
2018-09-15T07:27:15.410Z,17.62
2018-09-15T07:28:15.351Z,17.59
2018-09-15T07:29:15.290Z,17.62
2018-09-15T07:30:15.232Z,17.75
2018-09-15T07:31:15.187Z,17.71
2018-09-15T07:32:15.111Z,17.79
2018-09-15T07:33:15.052Z,17.84
2018-09-15T07:34:14.993Z,17.72
2018-09-15T07:35:14.932Z,17.72
2018-09-15T07:36:14.874Z,17.75
2018-09-15T07:37:14.812Z,17.72
2018-09-15T07:38:14.749Z,17.66
2018-09-15T07:39:14.690Z,17.68
2018-09-15T07:40:14.631Z,17.79
2018-09-15T07:41:14.571Z,17.78
2018-09-15T07:42:14.507Z,17.81
2018-09-15T07:43:14.452Z,17.83
2018-09-15T07:44:14.393Z,17.90
2018-09-15T07:45:14.331Z,17.87
2018-09-15T07:46:14.272Z,17.86
2018-09-15T07:47:14.211Z,17.84
2018-09-15T07:48:14.152Z,17.86
2018-09-15T07:49:14.093Z,17.97
2018-09-15T07:50:14.033Z,17.93
2018-09-15T07:51:13.972Z,17.96
2018-09-15T07:52:13.914Z,17.96
2018-09-15T07:53:13.854Z,17.96
2018-09-15T07:54:13.792Z,18.12
2018-09-15T07:55:13.733Z,18.09
2018-09-15T07:56:13.672Z,18.15
2018-09-15T07:57:13.614Z,18.17
2018-09-15T07:58:13.553Z,18.23
2018-09-15T07:59:13.493Z,18.17
2018-09-15T08:00:13.434Z,18.20
2018-09-15T08:01:13.375Z,18.27
2018-09-15T08:02:13.316Z,18.21
2018-09-15T08:03:13.256Z,18.21
2018-09-15T08:04:13.199Z,18.21
2018-09-15T08:05:13.138Z,18.28
2018-09-15T08:06:13.077Z,18.24
2018-09-15T08:07:13.017Z,18.23
2018-09-15T08:08:12.956Z,18.26
2018-09-15T08:09:12.898Z,18.24
2018-09-15T08:10:12.837Z,18.26
2018-09-15T08:11:12.779Z,18.27
2018-09-15T08:12:12.719Z,18.28
2018-09-15T08:13:12.660Z,18.34
2018-09-15T08:14:12.600Z,18.30
2018-09-15T08:15:12.542Z,18.38
2018-09-15T08:16:12.481Z,18.30
2018-09-15T08:17:12.424Z,18.31
2018-09-15T08:18:12.360Z,18.31
2018-09-15T08:19:12.302Z,18.28
2018-09-15T08:20:12.245Z,18.41
2018-09-15T08:21:12.183Z,18.38
2018-09-15T08:22:12.135Z,18.41
2018-09-15T08:23:12.065Z,18.39
2018-09-15T08:24:12.005Z,18.51
2018-09-15T08:25:11.945Z,18.49
2018-09-15T08:26:11.967Z,18.49
2018-09-15T08:27:11.827Z,18.51
2018-09-15T08:28:11.769Z,18.48
2018-09-15T08:29:11.708Z,18.38
2018-09-15T08:30:11.645Z,18.28
2018-09-15T08:31:11.588Z,18.39
2018-09-15T08:32:11.530Z,18.43
2018-09-15T08:33:11.474Z,18.41
2018-09-15T08:34:11.411Z,18.42
2018-09-15T08:35:11.361Z,18.36
2018-09-15T08:36:11.293Z,18.28
2018-09-15T08:37:11.232Z,18.31
2018-09-15T08:38:11.197Z,18.27
2018-09-15T08:39:11.115Z,18.36
2018-09-15T08:40:11.055Z,18.26
2018-09-15T08:41:11.057Z,18.30
2018-09-15T08:42:10.935Z,18.27
2018-09-15T08:43:10.876Z,18.33
2018-09-15T08:44:10.826Z,18.41
2018-09-15T08:45:10.754Z,18.45
2018-09-15T08:46:10.698Z,18.54
2018-09-15T08:47:10.642Z,18.45
2018-09-15T08:48:10.627Z,18.42
2018-09-15T08:49:10.526Z,18.46
2018-09-15T08:50:10.462Z,18.38
2018-09-15T08:51:10.404Z,18.52
2018-09-15T08:52:10.339Z,18.41
2018-09-15T08:53:10.283Z,18.51
2018-09-15T08:54:10.226Z,18.52
2018-09-15T08:55:10.164Z,18.63
2018-09-15T08:56:10.151Z,18.64
2018-09-15T08:57:10.046Z,18.66
2018-09-15T08:58:09.985Z,18.67
2018-09-15T08:59:09.925Z,18.66
2018-09-15T09:00:09.869Z,18.64
2018-09-15T09:01:09.808Z,18.66
2018-09-15T09:02:09.746Z,18.85
2018-09-15T09:03:09.686Z,18.79
2018-09-15T09:04:09.630Z,18.83
2018-09-15T09:05:09.569Z,18.85
2018-09-15T09:06:09.509Z,18.85
2018-09-15T09:07:09.451Z,18.93
2018-09-15T09:08:09.391Z,18.81
2018-09-15T09:09:09.334Z,18.82
2018-09-15T09:10:09.337Z,18.83
2018-09-15T09:11:09.215Z,18.81
2018-09-15T09:12:09.156Z,18.75
2018-09-15T09:13:09.096Z,18.82
2018-09-15T09:14:09.038Z,18.89
2018-09-15T09:15:08.976Z,18.88
2018-09-15T09:16:08.918Z,19.05
2018-09-15T09:17:08.857Z,19.07
2018-09-15T09:18:08.798Z,19.17
2018-09-15T09:19:08.738Z,19.27
2018-09-15T09:20:08.679Z,19.35
2018-09-15T09:21:08.621Z,19.54
2018-09-15T09:22:08.561Z,19.63
2018-09-15T09:23:08.507Z,19.77
2018-09-15T09:24:08.441Z,19.70
2018-09-15T09:25:08.385Z,19.64
2018-09-15T09:26:08.363Z,19.77
2018-09-15T09:27:08.261Z,19.70
2018-09-15T09:28:08.207Z,19.89
2018-09-15T09:29:08.147Z,19.90
2018-09-15T09:30:08.090Z,19.93
2018-09-15T09:31:08.030Z,19.99
2018-09-15T09:32:07.991Z,19.90
2018-09-15T09:33:07.927Z,19.89
2018-09-15T09:34:07.852Z,19.82
2018-09-15T09:35:07.794Z,19.82
2018-09-15T09:36:07.736Z,19.86
2018-09-15T09:37:07.678Z,19.87
2018-09-15T09:38:07.622Z,19.89
2018-09-15T09:39:07.559Z,19.93
2018-09-15T09:40:07.503Z,19.93
2018-09-15T09:41:07.440Z,19.92
2018-09-15T09:42:07.383Z,19.94
2018-09-15T09:43:07.323Z,20.04
2018-09-15T09:44:07.268Z,19.99
2018-09-15T09:45:07.205Z,20.07
2018-09-15T09:46:07.149Z,20.17
2018-09-15T09:47:07.091Z,20.25
2018-09-15T09:48:07.035Z,20.26
2018-09-15T09:49:06.974Z,20.29
2018-09-15T09:50:06.916Z,20.26
2018-09-15T09:51:06.856Z,20.26
2018-09-15T09:52:06.797Z,20.27
2018-09-15T09:53:06.741Z,20.25
2018-09-15T09:54:06.680Z,20.18
2018-09-15T09:55:06.624Z,20.12
2018-09-15T09:56:06.566Z,20.25
2018-09-15T09:57:06.508Z,20.19
2018-09-15T09:58:06.448Z,20.27
2018-09-15T09:59:06.390Z,20.29
2018-09-15T10:00:06.334Z,20.33
2018-09-15T10:01:06.289Z,20.25
2018-09-15T10:02:06.214Z,20.29
2018-09-15T10:03:06.156Z,20.18
2018-09-15T10:04:06.097Z,20.15
2018-09-15T10:05:06.042Z,20.18
2018-09-15T10:06:05.984Z,20.15
2018-09-15T10:07:05.934Z,20.25
2018-09-15T10:08:05.866Z,20.37
2018-09-15T10:09:05.809Z,20.33
2018-09-15T10:10:05.750Z,20.37
2018-09-15T10:11:05.692Z,20.30
2018-09-15T10:12:05.632Z,20.15
2018-09-15T10:13:05.575Z,20.00
2018-09-15T10:14:05.517Z,20.08
2018-09-15T10:15:05.457Z,20.14
2018-09-15T10:16:05.404Z,20.17
2018-09-15T10:17:05.342Z,20.30
2018-09-15T10:18:05.289Z,20.33
2018-09-15T10:19:05.227Z,20.41
2018-09-15T10:20:05.170Z,20.52
2018-09-15T10:21:05.111Z,20.37
2018-09-15T10:22:05.051Z,20.37
2018-09-15T10:23:04.994Z,20.32
2018-09-15T10:24:04.934Z,20.32
2018-09-15T10:25:04.878Z,20.33
2018-09-15T10:26:04.823Z,20.34
2018-09-15T10:27:04.762Z,20.33
2018-09-15T10:28:04.703Z,20.44
2018-09-15T10:29:04.647Z,20.34
2018-09-15T10:30:04.588Z,20.33
2018-09-15T10:31:04.529Z,20.22
2018-09-15T10:32:04.540Z,20.22
2018-09-15T10:33:04.421Z,20.33
2018-09-15T10:34:04.354Z,20.33
2018-09-15T10:35:04.298Z,20.36
2018-09-15T10:36:04.240Z,20.19
2018-09-15T10:37:04.179Z,20.18
2018-09-15T10:38:04.125Z,20.32
2018-09-15T10:39:04.065Z,20.33
2018-09-15T10:40:04.006Z,20.33
2018-09-15T10:41:03.948Z,20.32
2018-09-15T10:42:03.890Z,20.30
2018-09-15T10:43:03.828Z,20.29
2018-09-15T10:44:03.772Z,20.36
2018-09-15T10:45:03.715Z,20.39
2018-09-15T10:46:03.809Z,20.36
2018-09-15T10:47:03.598Z,20.37
2018-09-15T10:48:03.543Z,20.41
2018-09-15T10:49:03.487Z,20.55
2018-09-15T10:50:03.425Z,20.56
2018-09-15T10:51:03.368Z,20.61
2018-09-15T10:52:03.312Z,20.56
2018-09-15T10:53:03.248Z,20.60
2018-09-15T10:54:03.194Z,20.63
2018-09-15T10:55:03.135Z,20.60
2018-09-15T10:56:03.078Z,20.56
2018-09-15T10:57:03.020Z,20.65
2018-09-15T10:58:02.959Z,20.73
2018-09-15T10:59:02.904Z,20.86
2018-09-15T11:00:02.845Z,20.82
2018-09-15T11:01:02.791Z,20.88
2018-09-15T11:02:02.744Z,20.75
2018-09-15T11:03:02.677Z,20.90
2018-09-15T11:04:02.609Z,20.90
2018-09-15T11:05:02.560Z,20.93
2018-09-15T11:06:02.496Z,21.03
2018-09-15T11:07:02.440Z,21.01
2018-09-15T11:08:02.381Z,21.04
2018-09-15T11:09:02.321Z,21.10
2018-09-15T11:10:02.268Z,21.13
2018-09-15T11:11:02.210Z,21.04
2018-09-15T11:12:02.156Z,21.05
2018-09-15T11:13:02.093Z,20.93
2018-09-15T11:14:02.034Z,20.82
2018-09-15T11:15:01.981Z,20.79
2018-09-15T11:16:01.925Z,20.70
2018-09-15T11:17:01.863Z,20.79
2018-09-15T11:18:01.824Z,20.71
2018-09-15T11:19:01.747Z,20.73
2018-09-15T11:20:01.688Z,20.70
2018-09-15T11:21:01.626Z,20.58
2018-09-15T11:22:01.576Z,20.58
2018-09-15T11:23:01.513Z,20.58
2018-09-15T11:24:01.458Z,20.60
2018-09-15T11:25:01.401Z,20.68
2018-09-15T11:26:01.339Z,20.61
2018-09-15T11:27:01.283Z,20.56
2018-09-15T11:28:01.224Z,20.67
2018-09-15T11:29:01.256Z,20.58
2018-09-15T11:30:01.113Z,20.65
2018-09-15T11:31:01.050Z,20.56
2018-09-15T11:32:01.002Z,20.56
2018-09-15T11:33:00.935Z,20.58
2018-09-15T11:34:00.908Z,20.64
2018-09-15T11:35:00.819Z,20.61
2018-09-15T11:36:00.760Z,20.65
2018-09-15T11:37:00.705Z,20.61
2018-09-15T11:38:00.645Z,20.58
2018-09-15T11:39:00.586Z,20.56
2018-09-15T11:40:00.529Z,20.41
2018-09-15T11:41:00.525Z,20.41
2018-09-15T11:42:00.413Z,20.49
2018-09-15T11:43:00.354Z,20.55
2018-09-15T11:44:00.295Z,20.60
2018-09-15T11:45:00.238Z,20.56
2018-09-15T11:46:00.181Z,20.52
2018-09-15T11:47:00.124Z,20.61
2018-09-15T11:48:00.110Z,20.71
2018-09-15T11:49:00.002Z,20.68
2018-09-15T11:49:59.949Z,20.83
2018-09-15T11:50:59.890Z,20.80
2018-09-15T11:51:59.832Z,20.85
2018-09-15T11:52:59.776Z,20.97
2018-09-15T11:53:59.829Z,20.93
2018-09-15T11:54:59.655Z,21.03
2018-09-15T11:55:59.598Z,20.97
2018-09-15T11:56:59.541Z,20.79
2018-09-15T11:57:59.484Z,20.80
2018-09-15T11:58:59.425Z,20.70
2018-09-15T11:59:59.435Z,20.75
2018-09-15T12:00:59.310Z,20.80
2018-09-15T12:01:59.277Z,20.89
2018-09-15T12:02:59.193Z,20.79
2018-09-15T12:03:59.136Z,20.90
2018-09-15T12:04:59.076Z,20.93
2018-09-15T12:05:59.021Z,20.98
2018-09-15T12:06:58.961Z,20.95
2018-09-15T12:07:58.901Z,21.04
2018-09-15T12:08:58.844Z,21.20
2018-09-15T12:09:58.785Z,21.35
2018-09-15T12:10:58.725Z,21.40
2018-09-15T12:11:58.672Z,21.48
2018-09-15T12:12:58.614Z,21.44
2018-09-15T12:13:58.553Z,21.53
2018-09-15T12:14:58.496Z,21.44
2018-09-15T12:15:58.436Z,21.51
2018-09-15T12:16:58.380Z,21.45
2018-09-15T12:17:58.322Z,21.28
2018-09-15T12:18:58.262Z,21.19
2018-09-15T12:19:58.204Z,21.23
2018-09-15T12:20:58.146Z,21.22
2018-09-15T12:21:58.090Z,21.29
2018-09-15T12:22:58.029Z,21.29
2018-09-15T12:23:57.975Z,21.44
2018-09-15T12:24:57.916Z,21.47
2018-09-15T12:25:57.860Z,21.56
2018-09-15T12:26:57.800Z,21.60
2018-09-15T12:27:57.832Z,21.66
2018-09-15T12:28:57.685Z,21.59
2018-09-15T12:29:57.625Z,21.66
2018-09-15T12:30:57.567Z,21.69
2018-09-15T12:31:57.507Z,21.65
2018-09-15T12:32:57.453Z,21.65
2018-09-15T12:33:57.394Z,21.56
2018-09-15T12:34:57.338Z,21.45
2018-09-15T12:35:57.278Z,21.43
2018-09-15T12:36:57.220Z,21.34
2018-09-15T12:37:57.163Z,21.35
2018-09-15T12:38:57.109Z,21.30
2018-09-15T12:39:57.047Z,21.34
2018-09-15T12:40:56.994Z,21.40
2018-09-15T12:41:56.932Z,21.30
2018-09-15T12:42:56.872Z,21.35
2018-09-15T12:43:56.815Z,21.23
2018-09-15T12:44:56.805Z,21.25
2018-09-15T12:45:56.700Z,21.26
2018-09-15T12:46:56.642Z,21.28
2018-09-15T12:47:56.583Z,21.45
2018-09-15T12:48:56.526Z,21.48
2018-09-15T12:49:56.468Z,21.55
2018-09-15T12:50:56.409Z,21.53
2018-09-15T12:51:56.401Z,21.50